Ana Sayfa
METAR-TAF:

METAR-TAF

Havaalanları :

Alice Springs, Avustralya

Enlem: 23-48S, Boylam: 133-53E, yükseklik: 545 m

Güncel hava durumu gözlemi

Rapor saat 02:00 UTC de 39 dakika önce yapıldı.
Rüzgar doğudan 12 kt
Sıcaklık 27°C
Nem 28%
Basınç 1021 hPa
Görüş mesafesi 10 km veya daha fazla
1500 m altında bulut yok ve kümülonimbus yok

METAR: YBAS 270200Z 09012KT CAVOK 27/07 Q1021

Saat: 12:09 (02:39 UTC)

Tahmin

Rapor saat 23:04 UTC de 3 saat ve 35 dakika önce yapıldı.
Ayın 27'si saat 00 UTC'den ayın 27'si saat 24 UTC'ye kadar geçerli Tahmin
Rüzgar doğudan 13 kt
Görüş mesafesi 10 km veya daha fazla
Ayın 27'si saat 1000 UTC'den
Rüzgar doğudan 6 kt
Görüş mesafesi 10 km veya daha fazla
1500 m altında bulut yok ve kümülonimbus yok
Ayın 27'si saat 1600 UTC'den
Rüzgar kuzey/kuzeybatıdan 5 kt
Görüş mesafesi 10 km veya daha fazla
1500 m altında bulut yok ve kümülonimbus yok

TAF: YBAS 262304Z 2700/2724 10013KT 9999 NSW NSC FM271000 10006KT CAVOK FM271600 33005KT CAVOK

4.000'den fazla havaalanı için hava durumu gözlemleri ve tahminleri (METAR ve TAF raporları).

Kullanılabilir istasyonlar harita üzerinde sarı ve kırmızı noktalarla gösterilir.

İstasyonun adını görmek için fareyi noktanın üzerinde gezdirin.

Sonrasında hava gözlem ve tahminlerini görmek için tıklayın.

Haritayı değiştirmek için: yaklaştırmak için siyah artı işaretli yeşil düğmeye ve uzaklaştırmak için de eksi işaretli düğmeye hızla tıklayın; bitişik haritalar için yeşil okları kullanın.


METAR-TAF: